Lower San Francisco Plaza, New Mexico
Current Conditions -  °F | °C
As of 10:35 AM on Wednesday 26 Nov 2014 (Local Time) from KJTC Reporting Station
Clear Clear  
Wind Chill: 52°   Ceiling: Unl
Heat Index: 52°   Visibility: 10mi
Dew Point: 23°   Wind: 8mph
Humidity: 33%   Direction: 320°NW
Pressure: 30.48"   Gusts: NA
Location:  33.6665°N, 108.765°W
Report Text: KJTC 261735Z AUTO 32007KT 10SM CLR 11/M05 A3048 RMK AO2
Loading
Personal Weather Stations






























Interactive Weather Map New forecast layout! Learn more

10-Day Weather Forecast

Advertisements
Track Severe Weather on mobile